createdAt,value
2022-12-31T00:00:25.545Z,100427.06
2022-12-31T00:02:52.781Z,100436.00
2022-12-31T00:05:19.971Z,100432.41
2022-12-31T00:07:47.053Z,100433.31
2022-12-31T00:10:14.415Z,100425.34
2022-12-31T00:12:41.479Z,100417.91
2022-12-31T00:15:08.793Z,100430.41
2022-12-31T00:17:35.917Z,100426.72
2022-12-31T00:20:03.250Z,100432.09
2022-12-31T00:22:30.418Z,100435.72
2022-12-31T00:24:57.475Z,100447.31
2022-12-31T00:27:24.567Z,100439.41
2022-12-31T00:29:51.753Z,100448.09
2022-12-31T00:32:19.575Z,100451.72
2022-12-31T00:34:46.646Z,100444.66
2022-12-31T00:37:13.725Z,100447.03
2022-12-31T00:39:40.845Z,100446.28
2022-12-31T00:42:08.018Z,100445.38
2022-12-31T00:44:35.096Z,100449.88
2022-12-31T00:47:02.205Z,100448.91
2022-12-31T00:49:29.301Z,100452.50
2022-12-31T00:51:56.454Z,100460.28
2022-12-31T00:54:23.586Z,100451.63
2022-12-31T00:56:50.724Z,100443.56
2022-12-31T00:59:17.793Z,100448.03
2022-12-31T01:01:45.012Z,100452.56
2022-12-31T01:04:20.036Z,100443.72
2022-12-31T01:06:47.629Z,100447.31
2022-12-31T01:09:17.193Z,100437.72
2022-12-31T01:11:44.928Z,100445.59
2022-12-31T01:14:18.762Z,100437.84
2022-12-31T01:16:52.530Z,100452.97
2022-12-31T01:19:26.750Z,100451.19
2022-12-31T01:21:54.779Z,100448.81
2022-12-31T01:24:22.359Z,100456.78
2022-12-31T01:26:51.156Z,100451.41
2022-12-31T01:29:18.676Z,100453.38
2022-12-31T01:31:45.774Z,100449.00
2022-12-31T01:34:13.000Z,100451.59
2022-12-31T01:36:40.613Z,100454.47
2022-12-31T01:39:10.527Z,100454.53
2022-12-31T01:41:45.295Z,100454.59
2022-12-31T01:44:12.388Z,100460.75
2022-12-31T01:46:56.807Z,100461.72
2022-12-31T01:49:58.603Z,100453.91
2022-12-31T01:52:35.000Z,100454.94
2022-12-31T01:55:29.833Z,100456.53
2022-12-31T01:58:07.035Z,100462.78
2022-12-31T02:00:34.871Z,100469.25
2022-12-31T02:03:03.006Z,100474.38
2022-12-31T02:05:43.398Z,100476.38
2022-12-31T02:08:11.426Z,100483.63
2022-12-31T02:10:38.834Z,100470.38
2022-12-31T02:13:06.258Z,100464.91
2022-12-31T02:15:59.090Z,100448.19
2022-12-31T02:18:40.967Z,100444.66
2022-12-31T02:21:35.192Z,100444.59
2022-12-31T02:24:33.987Z,100446.34
2022-12-31T02:27:19.414Z,100445.47
2022-12-31T02:30:12.520Z,100445.53
2022-12-31T02:32:55.441Z,100434.16
2022-12-31T02:35:33.614Z,100416.28
2022-12-31T02:38:11.749Z,100417.25
2022-12-31T02:40:39.944Z,100411.94
2022-12-31T02:43:07.074Z,100424.22
2022-12-31T02:45:49.234Z,100414.72
2022-12-31T02:48:52.710Z,100429.78
2022-12-31T02:51:53.784Z,100445.88
2022-12-31T02:54:37.879Z,100447.72
2022-12-31T02:57:57.662Z,100461.97
2022-12-31T03:00:43.602Z,100465.66
2022-12-31T03:03:11.464Z,100469.03
2022-12-31T03:05:42.523Z,100481.53
2022-12-31T03:08:10.183Z,100480.78
2022-12-31T03:10:37.340Z,100484.28
2022-12-31T03:13:04.446Z,100485.34
2022-12-31T03:15:34.238Z,100475.56
2022-12-31T03:18:14.591Z,100479.09
2022-12-31T03:21:09.780Z,100479.16
2022-12-31T03:23:42.463Z,100476.50
2022-12-31T03:26:12.105Z,100479.34
2022-12-31T03:28:42.421Z,100482.00
2022-12-31T03:31:09.699Z,100488.25
2022-12-31T03:33:40.739Z,100489.97
2022-12-31T03:36:14.704Z,100477.53
2022-12-31T03:38:42.266Z,100486.44
2022-12-31T03:41:11.504Z,100492.72
2022-12-31T03:43:38.944Z,100489.38
2022-12-31T03:46:06.488Z,100484.94
2022-12-31T03:48:33.681Z,100475.22
2022-12-31T03:51:00.875Z,100453.22
2022-12-31T03:53:27.969Z,100471.78
2022-12-31T03:55:55.562Z,100474.50
2022-12-31T03:58:23.356Z,100476.47
2022-12-31T04:00:50.496Z,100479.06
2022-12-31T04:03:17.696Z,100471.06
2022-12-31T04:05:44.851Z,100470.31
2022-12-31T04:08:11.971Z,100460.72
2022-12-31T04:10:38.995Z,100474.25
2022-12-31T04:13:06.134Z,100456.47
2022-12-31T04:15:33.227Z,100448.59
2022-12-31T04:18:00.287Z,100447.56
2022-12-31T04:20:27.420Z,100450.28
2022-12-31T04:22:54.532Z,100437.97
2022-12-31T04:25:21.666Z,100441.59
2022-12-31T04:27:48.813Z,100432.66
2022-12-31T04:30:16.185Z,100422.06
2022-12-31T04:32:43.342Z,100423.13
2022-12-31T04:35:12.473Z,100439.97
2022-12-31T04:37:39.781Z,100445.28
2022-12-31T04:40:08.890Z,100455.78
2022-12-31T04:42:36.978Z,100448.94
2022-12-31T04:45:05.196Z,100449.84
2022-12-31T04:47:32.253Z,100452.59
2022-12-31T04:49:59.364Z,100449.81
2022-12-31T04:52:26.466Z,100464.97
2022-12-31T04:54:53.519Z,100459.63
2022-12-31T04:57:20.738Z,100452.69
2022-12-31T04:59:47.762Z,100462.34
2022-12-31T05:02:15.225Z,100467.78
2022-12-31T05:04:43.819Z,100448.13
2022-12-31T05:07:10.894Z,100449.81
2022-12-31T05:09:38.091Z,100462.25
2022-12-31T05:12:05.669Z,100477.28
2022-12-31T05:14:32.788Z,100463.16
2022-12-31T05:17:04.822Z,100444.53
2022-12-31T05:19:31.932Z,100467.41
2022-12-31T05:22:17.462Z,100457.72
2022-12-31T05:24:44.605Z,100449.75
2022-12-31T05:27:11.841Z,100456.91
2022-12-31T05:29:38.940Z,100468.22
2022-12-31T05:32:06.069Z,100452.09
2022-12-31T05:34:33.131Z,100461.91
2022-12-31T05:37:00.190Z,100474.34
2022-12-31T05:39:27.293Z,100475.97
2022-12-31T05:41:54.437Z,100482.94
2022-12-31T05:44:21.577Z,100474.03
2022-12-31T05:46:48.701Z,100465.94
2022-12-31T05:49:16.589Z,100472.81
2022-12-31T05:51:43.921Z,100466.47
2022-12-31T05:54:11.019Z,100469.94
2022-12-31T05:56:38.099Z,100454.84
2022-12-31T05:59:05.347Z,100465.31
2022-12-31T06:01:32.450Z,100465.16
2022-12-31T06:04:00.175Z,100459.75
2022-12-31T06:06:27.376Z,100467.69
2022-12-31T06:08:54.874Z,100456.06
2022-12-31T06:11:22.018Z,100458.66
2022-12-31T06:13:49.075Z,100463.00
2022-12-31T06:16:16.195Z,100471.69
2022-12-31T06:18:43.378Z,100469.91
2022-12-31T06:21:10.696Z,100470.72
2022-12-31T06:23:37.903Z,100475.03
2022-12-31T06:26:05.499Z,100481.19
2022-12-31T06:28:32.724Z,100465.91
2022-12-31T06:31:01.977Z,100472.16
2022-12-31T06:33:29.877Z,100476.56
2022-12-31T06:35:59.093Z,100479.09
2022-12-31T06:38:27.918Z,100486.09
2022-12-31T06:40:55.526Z,100491.44
2022-12-31T06:43:23.403Z,100492.94
2022-12-31T06:45:50.542Z,100495.22
2022-12-31T06:48:18.620Z,100494.44
2022-12-31T06:50:45.794Z,100498.69
2022-12-31T06:53:13.045Z,100493.16
2022-12-31T06:55:40.505Z,100489.41
2022-12-31T06:58:14.253Z,100503.47
2022-12-31T07:01:44.069Z,100491.75
2022-12-31T07:04:42.183Z,100485.13
2022-12-31T07:07:42.881Z,100489.44
2022-12-31T07:11:02.494Z,100485.63
2022-12-31T07:14:01.243Z,100480.63
2022-12-31T07:16:47.226Z,100472.63
2022-12-31T07:19:33.830Z,100480.31
2022-12-31T07:22:01.197Z,100468.59
2022-12-31T07:24:28.967Z,100477.53
2022-12-31T07:27:22.633Z,100490.38
2022-12-31T07:30:10.039Z,100482.16
2022-12-31T07:33:02.844Z,100474.72
2022-12-31T07:36:00.627Z,100492.41
2022-12-31T07:38:42.638Z,100488.00
2022-12-31T07:41:37.317Z,100493.81
2022-12-31T07:44:20.545Z,100496.28
2022-12-31T07:46:55.794Z,100495.19
2022-12-31T07:49:24.876Z,100494.06
2022-12-31T07:51:53.160Z,100493.25
2022-12-31T07:54:21.097Z,100507.09
2022-12-31T07:56:49.570Z,100512.22
2022-12-31T07:59:41.547Z,100514.97
2022-12-31T08:02:21.337Z,100507.69
2022-12-31T08:05:27.207Z,100507.31
2022-12-31T08:08:28.125Z,100512.16
2022-12-31T08:11:36.602Z,100519.91
2022-12-31T08:14:03.912Z,100526.06
2022-12-31T08:16:31.395Z,100501.31
2022-12-31T08:18:58.854Z,100525.25
2022-12-31T08:21:52.901Z,100521.72
2022-12-31T08:24:53.699Z,100512.84
2022-12-31T08:27:32.927Z,100525.25
2022-12-31T08:30:12.342Z,100524.25
2022-12-31T08:33:24.362Z,100532.41
2022-12-31T08:36:20.904Z,100550.47
2022-12-31T08:39:17.247Z,100560.75
2022-12-31T08:41:51.677Z,100570.72
2022-12-31T08:44:44.687Z,100570.88
2022-12-31T08:47:44.503Z,100588.41
2022-12-31T08:50:18.974Z,100591.06
2022-12-31T08:52:47.477Z,100594.81
2022-12-31T08:55:19.407Z,100609.13
2022-12-31T08:58:27.363Z,100608.97
2022-12-31T09:00:59.396Z,100614.53
2022-12-31T09:03:57.684Z,100630.59
2022-12-31T09:06:34.360Z,100624.28
2022-12-31T09:09:18.646Z,100625.41
2022-12-31T09:11:57.718Z,100634.22
2022-12-31T09:14:42.605Z,100649.16
2022-12-31T09:17:44.314Z,100645.69
2022-12-31T09:20:42.348Z,100644.69
2022-12-31T09:23:10.266Z,100640.13
2022-12-31T09:25:59.247Z,100652.41
2022-12-31T09:28:39.361Z,100653.28
2022-12-31T09:31:22.000Z,100638.69
2022-12-31T09:34:07.157Z,100649.38
2022-12-31T09:36:46.823Z,100642.09
2022-12-31T09:39:38.123Z,100643.91
2022-12-31T09:42:42.654Z,100633.94
2022-12-31T09:45:57.124Z,100641.88
2022-12-31T09:49:03.691Z,100646.13
2022-12-31T09:51:58.224Z,100656.63
2022-12-31T09:55:13.196Z,100659.78
2022-12-31T09:58:03.945Z,100645.44
2022-12-31T10:00:48.200Z,100659.66
2022-12-31T10:03:38.361Z,100660.28
2022-12-31T10:06:32.217Z,100656.75
2022-12-31T10:09:36.403Z,100648.63
2022-12-31T10:12:24.646Z,100664.59
2022-12-31T10:15:05.734Z,100649.19
2022-12-31T10:18:07.164Z,100653.59
2022-12-31T10:20:54.127Z,100650.47
2022-12-31T10:23:59.512Z,100651.94
2022-12-31T10:26:42.620Z,100653.34
2022-12-31T10:29:30.650Z,100660.34
2022-12-31T10:32:18.748Z,100654.69
2022-12-31T10:35:24.181Z,100669.25
2022-12-31T10:38:16.932Z,100661.41
2022-12-31T10:41:11.391Z,100667.53
2022-12-31T10:44:12.381Z,100673.06
2022-12-31T10:47:01.292Z,100666.59
2022-12-31T10:50:17.227Z,100672.72
2022-12-31T10:53:18.188Z,100667.53
2022-12-31T10:56:21.656Z,100675.56
2022-12-31T10:59:41.221Z,100642.53
2022-12-31T11:02:42.702Z,100661.31
2022-12-31T11:06:05.892Z,100648.81
2022-12-31T11:09:37.937Z,100670.06
2022-12-31T11:12:40.685Z,100692.25
2022-12-31T11:15:25.950Z,100671.72
2022-12-31T11:18:33.429Z,100675.19
2022-12-31T11:21:17.291Z,100656.38
2022-12-31T11:24:37.030Z,100667.00
2022-12-31T11:27:57.621Z,100647.59
2022-12-31T11:31:12.869Z,100653.63
2022-12-31T11:34:28.681Z,100661.66
2022-12-31T11:37:04.515Z,100651.13
2022-12-31T11:40:01.313Z,100669.66
2022-12-31T11:42:59.069Z,100667.25
2022-12-31T11:45:54.021Z,100686.44
2022-12-31T11:48:34.842Z,100658.97
2022-12-31T11:51:55.506Z,100675.66
2022-12-31T11:55:02.203Z,100680.09
2022-12-31T11:57:39.600Z,100675.41
2022-12-31T12:00:36.009Z,100668.13
2022-12-31T12:03:06.869Z,100670.72
2022-12-31T12:05:35.676Z,100654.53
2022-12-31T12:08:03.324Z,100655.47
2022-12-31T12:10:47.930Z,100657.81
2022-12-31T12:13:23.812Z,100651.59
2022-12-31T12:16:03.580Z,100649.09
2022-12-31T12:18:42.824Z,100653.31
2022-12-31T12:21:22.859Z,100648.13
2022-12-31T12:24:20.861Z,100643.41
2022-12-31T12:26:48.168Z,100640.34
2022-12-31T12:29:21.649Z,100645.69
2022-12-31T12:32:21.113Z,100636.81
2022-12-31T12:34:50.193Z,100635.63
2022-12-31T12:37:34.434Z,100645.56
2022-12-31T12:40:05.181Z,100658.94
2022-12-31T12:42:33.237Z,100647.28
2022-12-31T12:45:18.206Z,100640.09
2022-12-31T12:47:48.325Z,100645.56
2022-12-31T12:50:19.458Z,100642.78
2022-12-31T12:53:08.627Z,100659.06
2022-12-31T12:56:09.132Z,100652.63
2022-12-31T12:58:57.794Z,100648.06
2022-12-31T13:01:55.146Z,100674.81
2022-12-31T13:04:50.923Z,100657.00
2022-12-31T13:07:51.590Z,100671.97
2022-12-31T13:10:48.313Z,100670.50
2022-12-31T13:13:45.514Z,100675.84
2022-12-31T13:16:59.815Z,100688.25
2022-12-31T13:19:46.669Z,100683.63
2022-12-31T13:22:25.389Z,100683.00
2022-12-31T13:25:19.890Z,100683.00
2022-12-31T13:27:51.154Z,100685.09
2022-12-31T13:30:23.125Z,100693.06
2022-12-31T13:33:09.476Z,100685.09
2022-12-31T13:36:08.018Z,100689.78
2022-12-31T13:38:48.927Z,100685.19
2022-12-31T13:41:46.712Z,100687.16
2022-12-31T13:44:35.461Z,100688.78
2022-12-31T13:47:33.947Z,100676.28
2022-12-31T13:50:42.091Z,100703.13
2022-12-31T13:53:31.592Z,100684.69
2022-12-31T13:56:11.642Z,100700.59
2022-12-31T13:58:57.756Z,100688.19
2022-12-31T14:01:34.724Z,100689.13
2022-12-31T14:04:17.430Z,100685.34
2022-12-31T14:07:06.844Z,100688.25
2022-12-31T14:09:35.734Z,100692.59
2022-12-31T14:12:21.209Z,100690.91
2022-12-31T14:15:28.599Z,100699.75
2022-12-31T14:18:16.794Z,100682.91
2022-12-31T14:21:12.156Z,100685.44
2022-12-31T14:24:00.775Z,100688.19
2022-12-31T14:26:52.490Z,100690.78
2022-12-31T14:30:02.040Z,100693.66
2022-12-31T14:32:44.151Z,100724.97
2022-12-31T14:35:40.571Z,100725.91
2022-12-31T14:38:53.782Z,100742.41
2022-12-31T14:42:00.011Z,100742.47
2022-12-31T14:45:18.569Z,100731.94
2022-12-31T14:48:21.932Z,100726.75
2022-12-31T14:50:49.602Z,100726.66
2022-12-31T14:53:25.741Z,100727.03
2022-12-31T14:56:06.171Z,100730.72
2022-12-31T14:58:42.602Z,100733.41
2022-12-31T15:01:15.785Z,100741.41
2022-12-31T15:03:46.201Z,100750.38
2022-12-31T15:06:37.521Z,100735.34
2022-12-31T15:09:41.060Z,100759.63
2022-12-31T15:12:47.866Z,100765.97
2022-12-31T15:15:36.328Z,100744.75
2022-12-31T15:18:24.867Z,100743.00
2022-12-31T15:21:16.698Z,100729.78
2022-12-31T15:23:46.091Z,100725.09
2022-12-31T15:26:31.424Z,100727.91
2022-12-31T15:29:05.375Z,100724.38
2022-12-31T15:31:35.557Z,100726.91
2022-12-31T15:34:25.221Z,100724.22
2022-12-31T15:37:00.388Z,100705.50
2022-12-31T15:39:44.298Z,100704.66
2022-12-31T15:42:50.447Z,100710.72
2022-12-31T15:45:31.588Z,100700.09
2022-12-31T15:48:03.159Z,100721.41
2022-12-31T15:50:30.862Z,100705.44
2022-12-31T15:53:03.719Z,100712.59
2022-12-31T15:55:40.961Z,100716.69
2022-12-31T15:58:17.636Z,100711.41
2022-12-31T16:01:15.916Z,100719.38
2022-12-31T16:03:49.223Z,100720.31
2022-12-31T16:06:17.970Z,100730.00
2022-12-31T16:08:49.383Z,100716.25
2022-12-31T16:11:17.623Z,100707.94
2022-12-31T16:13:51.403Z,100716.34
2022-12-31T16:16:23.886Z,100720.91
2022-12-31T16:18:52.960Z,100723.09
2022-12-31T16:21:34.344Z,100723.66
2022-12-31T16:24:30.009Z,100704.69
2022-12-31T16:27:05.569Z,100710.75
2022-12-31T16:29:35.607Z,100691.91
2022-12-31T16:32:03.378Z,100694.59
2022-12-31T16:34:38.457Z,100698.66
2022-12-31T16:37:17.850Z,100692.06
2022-12-31T16:39:56.977Z,100705.72
2022-12-31T16:42:27.352Z,100690.50
2022-12-31T16:44:56.651Z,100689.03
2022-12-31T16:47:32.823Z,100692.50
2022-12-31T16:50:20.808Z,100698.50
2022-12-31T16:52:51.456Z,100691.44
2022-12-31T16:55:23.546Z,100693.00
2022-12-31T16:58:07.646Z,100698.00
2022-12-31T17:00:36.304Z,100703.25
2022-12-31T17:03:11.402Z,100698.72
2022-12-31T17:06:14.404Z,100682.69
2022-12-31T17:09:05.548Z,100685.28
2022-12-31T17:11:50.323Z,100686.16
2022-12-31T17:14:23.133Z,100698.16
2022-12-31T17:17:07.427Z,100694.63
2022-12-31T17:19:41.465Z,100691.84
2022-12-31T17:22:36.776Z,100691.44
2022-12-31T17:25:07.379Z,100685.41
2022-12-31T17:27:36.440Z,100688.22
2022-12-31T17:30:28.458Z,100677.47
2022-12-31T17:33:19.521Z,100683.31
2022-12-31T17:35:47.532Z,100681.94
2022-12-31T17:38:23.530Z,100676.47
2022-12-31T17:41:06.607Z,100665.84
2022-12-31T17:43:36.636Z,100668.06
2022-12-31T17:46:15.049Z,100678.69
2022-12-31T17:48:43.434Z,100680.81
2022-12-31T17:51:10.621Z,100682.81
2022-12-31T17:53:37.819Z,100689.03
2022-12-31T17:56:10.293Z,100689.81
2022-12-31T17:58:47.822Z,100692.19
2022-12-31T18:01:20.480Z,100702.41
2022-12-31T18:03:48.399Z,100683.53
2022-12-31T18:06:17.233Z,100689.44
2022-12-31T18:08:44.581Z,100695.44
2022-12-31T18:11:18.594Z,100701.88
2022-12-31T18:13:46.106Z,100697.25
2022-12-31T18:16:13.220Z,100695.66
2022-12-31T18:18:41.821Z,100701.19
2022-12-31T18:21:22.722Z,100699.44
2022-12-31T18:23:50.533Z,100684.50
2022-12-31T18:26:21.649Z,100677.00
2022-12-31T18:28:49.977Z,100678.75
2022-12-31T18:31:24.106Z,100685.13
2022-12-31T18:33:53.685Z,100685.63
2022-12-31T18:36:22.832Z,100687.72
2022-12-31T18:38:50.382Z,100688.75
2022-12-31T18:41:23.831Z,100693.72
2022-12-31T18:43:51.533Z,100687.97
2022-12-31T18:46:22.296Z,100701.75
2022-12-31T18:48:49.828Z,100691.38
2022-12-31T18:51:23.998Z,100700.78
2022-12-31T18:53:53.699Z,100696.94
2022-12-31T18:56:22.158Z,100701.59
2022-12-31T18:58:49.456Z,100698.53
2022-12-31T19:01:46.028Z,100690.66
2022-12-31T19:04:26.499Z,100695.34
2022-12-31T19:06:54.668Z,100702.69
2022-12-31T19:12:13.435Z,100712.56
2022-12-31T19:14:40.518Z,100722.47
2022-12-31T19:19:34.616Z,100727.09
2022-12-31T19:22:02.598Z,100722.59
2022-12-31T19:24:29.881Z,100721.88
2022-12-31T19:26:56.992Z,100728.56
2022-12-31T19:29:27.498Z,100721.41
2022-12-31T19:31:54.952Z,100720.13
2022-12-31T19:34:22.104Z,100737.78
2022-12-31T19:36:49.276Z,100713.22
2022-12-31T19:39:20.323Z,100715.72
2022-12-31T19:41:51.694Z,100717.91
2022-12-31T19:44:25.702Z,100721.19
2022-12-31T19:46:52.861Z,100711.53
2022-12-31T19:49:19.943Z,100719.31
2022-12-31T19:51:46.979Z,100729.19
2022-12-31T19:54:14.360Z,100726.19
2022-12-31T19:56:41.643Z,100734.09
2022-12-31T19:59:10.863Z,100732.47
2022-12-31T20:01:38.390Z,100734.34
2022-12-31T20:04:05.859Z,100748.34
2022-12-31T20:06:33.113Z,100737.75
2022-12-31T20:09:00.324Z,100741.88
2022-12-31T20:11:27.960Z,100728.69
2022-12-31T20:13:55.061Z,100741.06
2022-12-31T20:16:26.571Z,100745.09
2022-12-31T20:18:53.824Z,100745.91
2022-12-31T20:21:27.289Z,100742.84
2022-12-31T20:23:55.486Z,100749.72
2022-12-31T20:26:24.448Z,100755.72
2022-12-31T20:28:52.826Z,100767.22
2022-12-31T20:31:23.719Z,100754.28
2022-12-31T20:33:51.467Z,100739.03
2022-12-31T20:36:18.687Z,100746.47
2022-12-31T20:38:46.433Z,100739.69
2022-12-31T20:41:17.889Z,100747.25
2022-12-31T20:43:45.880Z,100736.44
2022-12-31T20:46:21.004Z,100743.06
2022-12-31T20:48:50.085Z,100745.53
2022-12-31T20:51:18.841Z,100768.28
2022-12-31T20:53:51.218Z,100755.94
2022-12-31T20:56:19.137Z,100763.38
2022-12-31T20:58:46.425Z,100761.50
2022-12-31T21:01:15.238Z,100744.06
2022-12-31T21:06:33.499Z,100750.31
2022-12-31T21:09:03.316Z,100742.75
2022-12-31T21:11:49.201Z,100757.19
2022-12-31T21:14:16.268Z,100767.53
2022-12-31T21:16:43.412Z,100762.84
2022-12-31T21:19:10.630Z,100765.94
2022-12-31T21:21:37.803Z,100761.88
2022-12-31T21:24:05.353Z,100763.06
2022-12-31T21:26:32.552Z,100771.50
2022-12-31T21:28:59.756Z,100778.97
2022-12-31T21:31:27.078Z,100784.53
2022-12-31T21:33:54.296Z,100787.00
2022-12-31T21:36:21.365Z,100798.63
2022-12-31T21:38:48.470Z,100800.50
2022-12-31T21:41:35.071Z,100793.78
2022-12-31T21:44:03.145Z,100809.34
2022-12-31T21:46:30.617Z,100815.81
2022-12-31T21:48:59.683Z,100809.78
2022-12-31T21:51:27.368Z,100813.47
2022-12-31T21:53:54.587Z,100810.47
2022-12-31T21:56:22.755Z,100803.31
2022-12-31T21:59:17.053Z,100802.38
2022-12-31T22:02:03.094Z,100804.25
2022-12-31T22:07:17.736Z,100806.66
2022-12-31T22:09:44.860Z,100807.81
2022-12-31T22:12:11.936Z,100802.38
2022-12-31T22:14:39.023Z,100796.47
2022-12-31T22:17:26.043Z,100792.50
2022-12-31T22:20:25.168Z,100796.13
2022-12-31T22:22:40.479Z,100803.91
2022-12-31T22:25:08.582Z,100804.78
2022-12-31T22:27:35.728Z,100802.38
2022-12-31T22:30:02.860Z,100813.66
2022-12-31T22:32:29.984Z,100812.06
2022-12-31T22:34:56.988Z,100801.59
2022-12-31T22:40:11.599Z,100817.28
2022-12-31T22:42:38.804Z,100804.84
2022-12-31T22:45:07.602Z,100807.81
2022-12-31T22:47:35.413Z,100798.03
2022-12-31T22:50:02.459Z,100813.91
2022-12-31T22:52:29.509Z,100822.47
2022-12-31T22:54:56.660Z,100821.25
2022-12-31T22:57:23.729Z,100820.72
2022-12-31T22:59:51.955Z,100826.09
2022-12-31T23:02:19.152Z,100826.09
2022-12-31T23:04:46.321Z,100821.66
2022-12-31T23:07:13.510Z,100819.28
2022-12-31T23:09:59.400Z,100822.47
2022-12-31T23:12:26.590Z,100832.59
2022-12-31T23:15:12.428Z,100828.41
2022-12-31T23:17:58.319Z,100829.56
2022-12-31T23:20:44.916Z,100842.59
2022-12-31T23:23:16.743Z,100840.91
2022-12-31T23:25:50.098Z,100855.16
2022-12-31T23:28:21.912Z,100859.94
2022-12-31T23:30:51.316Z,100860.69
2022-12-31T23:33:22.168Z,100863.69
2022-12-31T23:35:49.588Z,100881.13
2022-12-31T23:38:18.479Z,100861.59
2022-12-31T23:40:46.057Z,100858.47
2022-12-31T23:43:21.378Z,100857.16
2022-12-31T23:45:52.841Z,100861.59
2022-12-31T23:48:19.965Z,100871.56
2022-12-31T23:50:53.616Z,100873.88
2022-12-31T23:53:25.046Z,100876.13
2022-12-31T23:55:53.619Z,100872.94
2022-12-31T23:58:21.514Z,100878.72
